TimeEDT,TemperatureF,Dew PointF,Humidity,Sea Level PressureIn,VisibilityMPH,Wind Direction,Wind SpeedMPH,Gust SpeedMPH,PrecipitationIn,Events,Conditions,WindDirDegrees,DateUTC
12:12 AM,71.6,69.8,94,29.76,6.0,SSW,4.6,-,N/A,,Overcast,200,2013-09-03 04:12:00
12:38 AM,71.6,69.8,94,29.75,5.0,Variable,3.5,-,N/A,,Overcast,0,2013-09-03 04:38:00
12:52 AM,72.0,69.1,91,29.75,6.0,SW,6.9,-,N/A,,Overcast,220,2013-09-03 04:52:00
1:52 AM,72.0,70.0,93,29.74,7.0,SW,4.6,-,N/A,,Overcast,220,2013-09-03 05:52:00
2:52 AM,72.0,69.1,91,29.72,8.0,SW,6.9,-,N/A,,Overcast,220,2013-09-03 06:52:00
3:52 AM,72.0,69.1,91,29.71,7.0,SW,4.6,-,N/A,,Overcast,220,2013-09-03 07:52:00
4:42 AM,71.6,69.8,94,29.72,7.0,SW,4.6,-,N/A,,Overcast,220,2013-09-03 08:42:00
4:52 AM,71.1,69.1,93,29.73,7.0,WSW,5.8,-,N/A,,Overcast,250,2013-09-03 08:52:00
5:10 AM,71.6,69.8,94,29.73,6.0,SW,5.8,-,N/A,,Overcast,220,2013-09-03 09:10:00
5:52 AM,71.1,69.1,93,29.74,5.0,SW,5.8,-,N/A,,Overcast,220,2013-09-03 09:52:00
6:07 AM,71.6,69.8,94,29.75,6.0,SW,4.6,-,N/A,,Overcast,230,2013-09-03 10:07:00
6:29 AM,71.6,68.0,88,29.76,8.0,WSW,6.9,-,N/A,,Overcast,250,2013-09-03 10:29:00
6:52 AM,72.0,68.0,87,29.76,8.0,West,5.8,-,N/A,,Overcast,260,2013-09-03 10:52:00
7:29 AM,71.6,68.0,88,29.77,10.0,SSW,5.8,-,N/A,,Scattered Clouds,210,2013-09-03 11:29:00
7:52 AM,73.0,68.0,84,29.77,10.0,SW,5.8,-,N/A,,Partly Cloudy,220,2013-09-03 11:52:00
8:21 AM,73.4,68.0,83,29.79,10.0,WSW,9.2,-,N/A,,Mostly Cloudy,250,2013-09-03 12:21:00
8:52 AM,75.0,68.0,79,29.78,10.0,Variable,4.6,-,N/A,,Mostly Cloudy,0,2013-09-03 12:52:00
9:00 AM,75.2,68.0,78,29.79,10.0,SSW,6.9,-,N/A,,Scattered Clouds,210,2013-09-03 13:00:00
9:52 AM,78.1,68.0,71,29.78,10.0,WSW,8.1,-,N/A,,Clear,240,2013-09-03 13:52:00
10:52 AM,80.1,66.9,64,29.78,10.0,WSW,6.9,-,N/A,,Clear,240,2013-09-03 14:52:00
11:52 AM,81.0,69.1,67,29.75,10.0,SSW,6.9,-,N/A,,Mostly Cloudy,200,2013-09-03 15:52:00
12:52 PM,79.0,71.1,77,29.76,10.0,SSE,8.1,-,N/A,,Mostly Cloudy,160,2013-09-03 16:52:00
12:59 PM,78.8,71.6,78,29.76,10.0,SSE,8.1,-,N/A,,Mostly Cloudy,160,2013-09-03 16:59:00
1:52 PM,75.9,71.1,85,29.75,10.0,SW,9.2,-,0.00,Rain,Light Rain,230,2013-09-03 17:52:00
2:01 PM,75.2,69.8,83,29.76,10.0,SW,8.1,-,0.00,Rain,Light Rain,220,2013-09-03 18:01:00
2:52 PM,75.0,71.1,87,29.75,8.0,WSW,10.4,-,0.01,,Mostly Cloudy,240,2013-09-03 18:52:00
3:01 PM,75.2,71.6,89,29.74,9.0,WSW,6.9,-,0.01,Rain,Light Rain,240,2013-09-03 19:01:00
3:16 PM,73.4,71.6,94,29.76,8.0,SW,9.2,-,0.01,Rain-Thunderstorm,Light Rain,230,2013-09-03 19:16:00
3:23 PM,73.4,71.6,94,29.75,6.0,SSW,9.2,-,0.02,Rain-Thunderstorm,Light Rain,210,2013-09-03 19:23:00
3:35 PM,73.4,71.6,94,29.74,5.0,South,8.1,-,0.05,Rain-Thunderstorm,Light Thunderstorms and Rain,180,2013-09-03 19:35:00
3:52 PM,73.0,69.1,87,29.74,5.0,WSW,8.1,-,0.07,Rain-Thunderstorm,Light Thunderstorms and Rain,240,2013-09-03 19:52:00
4:52 PM,70.0,64.9,84,29.77,10.0,WSW,16.1,24.2,0.05,Rain-Thunderstorm,Light Rain,240,2013-09-03 20:52:00
5:03 PM,69.8,64.4,83,29.75,9.0,SSW,4.6,-,0.01,Rain-Thunderstorm,Light Thunderstorms and Rain,200,2013-09-03 21:03:00
5:40 PM,68.0,64.4,88,29.75,10.0,WSW,10.4,-,0.01,Rain,Light Rain,240,2013-09-03 21:40:00
5:50 PM,68.0,64.4,88,29.73,10.0,South,5.8,-,0.01,Rain-Thunderstorm,Light Rain,180,2013-09-03 21:50:00
5:52 PM,68.0,64.9,90,29.73,10.0,Variable,4.6,-,0.01,Rain-Thunderstorm,Light Rain,0,2013-09-03 21:52:00
6:35 PM,68.0,64.4,88,29.75,10.0,SSW,3.5,-,0.04,Thunderstorm,Thunderstorm,200,2013-09-03 22:35:00
6:52 PM,68.0,66.0,93,29.76,10.0,SW,8.1,-,0.04,Thunderstorm,Overcast,220,2013-09-03 22:52:00
7:12 PM,69.8,66.2,88,29.76,10.0,SSW,4.6,-,N/A,Thunderstorm,Overcast,210,2013-09-03 23:12:00
7:28 PM,69.8,66.2,88,29.76,10.0,SW,6.9,-,N/A,,Overcast,230,2013-09-03 23:28:00
7:52 PM,69.1,66.0,90,29.77,10.0,SSW,5.8,-,N/A,,Overcast,210,2013-09-03 23:52:00
8:52 PM,69.1,66.9,93,29.80,10.0,SW,3.5,-,N/A,,Overcast,230,2013-09-04 00:52:00
9:52 PM,68.0,66.0,93,29.81,10.0,WSW,4.6,-,N/A,,Partly Cloudy,250,2013-09-04 01:52:00
10:52 PM,68.0,64.9,90,29.82,9.0,SW,3.5,-,N/A,,Clear,230,2013-09-04 02:52:00
11:52 PM,66.0,63.0,90,29.81,10.0,West,6.9,-,N/A,,Clear,270,2013-09-04 03:52:00